Terminal Aerodrome Forecast
Issued by NWS

Home | Current Version | Previous Version | Text Only | Print | Product List | Glossary On
Versions: 1 2 3 4 5 6 7 8 9 10 11 12 13 14 15
000
FTUS41 KPBZ 242350
TAFDUJ
TAF
KDUJ 242350Z 2500/2524 18006KT P6SM SKC
     FM250300 19007KT P6SM FEW250 WS020/23035KT
     FM251600 24009G16KT P6SM VCSH OVC045
     FM251700 24009G16KT P6SM VCSH OVC025
     FM251800 25009KT P6SM VCSH OVC010
     FM252100 26008KT P6SM VCSH OVC008=

USA.gov is the U.S. government's official web portal to all federal, state and local government web resources and services.